Time;durP1;ratioP1;P1;durP2;ratioP2;P2;SDS_P1;SDS_P2;PMS_P1;PMS_P2;Temp;Humidity;BMP_temperature;BMP_pressure;BME280_temperature;BME280_humidity;BME280_pressure;Samples;Min_cycle;Max_cycle;Signal;HPM_P1;HPM_P2
2023/09/28 00:08:13;;;;;;;;;;;12.80;99.90;;;;;;21049970;28;19916;-77
2023/09/28 00:18:13;;;;;;;;;;;12.60;99.90;;;;;;21051524;28;19955;-77
2023/09/28 00:28:14;;;;;;;;;;;12.60;99.90;;;;;;21050631;28;19969;-77
2023/09/28 00:38:15;;;;;;;;;;;12.60;99.90;;;;;;21051178;28;20286;-77
2023/09/28 00:48:16;;;;;;;;;;;12.70;99.90;;;;;;21053070;28;20342;-76
2023/09/28 00:58:17;;;;;;;;;;;12.50;99.90;;;;;;21048224;28;19921;-77
2023/09/28 01:08:21;;;;;;;;;;;12.60;99.90;;;;;;21050634;28;20383;-76
2023/09/28 01:18:22;;;;;;;;;;;12.60;99.90;;;;;;21048705;28;20006;-77
2023/09/28 01:28:23;;;;;;;;;;;12.50;99.90;;;;;;21048858;28;19917;-77
2023/09/28 01:38:40;;;;;;;;;;;12.50;99.90;;;;;;21048700;28;20001;-77
2023/09/28 01:48:41;;;;;;;;;;;12.40;99.90;;;;;;21030023;28;20366;-76
2023/09/28 01:58:42;;;;;;;;;;;12.40;99.90;;;;;;21044681;28;20018;-77
2023/09/28 02:08:42;;;;;;;;;;;12.30;99.90;;;;;;21041588;28;19916;-76
2023/09/28 02:18:46;;;;;;;;;;;12.20;99.90;;;;;;21043493;28;20367;-77
2023/09/28 02:28:48;;;;;;;;;;;12.30;99.90;;;;;;21047338;28;19916;-76
2023/09/28 02:38:50;;;;;;;;;;;12.30;99.90;;;;;;21044150;28;20002;-77
2023/09/28 02:48:51;;;;;;;;;;;12.30;99.90;;;;;;21044722;28;20375;-77
2023/09/28 02:58:52;;;;;;;;;;;12.30;99.90;;;;;;21042001;28;19912;-76
2023/09/28 03:08:53;;;;;;;;;;;12.20;99.90;;;;;;21043161;28;20302;-76
2023/09/28 03:18:54;;;;;;;;;;;12.20;99.90;;;;;;21043299;28;20394;-77
2023/09/28 03:28:56;;;;;;;;;;;12.10;99.90;;;;;;21007102;28;19917;-77
2023/09/28 03:38:57;;;;;;;;;;;12.10;99.90;;;;;;20989048;28;19963;-76
2023/09/28 03:48:58;;;;;;;;;;;11.90;99.90;;;;;;21037397;28;20287;-76
2023/09/28 03:58:58;;;;;;;;;;;11.90;99.90;;;;;;21050771;28;19912;-77
2023/09/28 04:08:59;;;;;;;;;;;11.90;99.90;;;;;;21037050;28;19978;-76
2023/09/28 04:19:00;;;;;;;;;;;12.00;99.90;;;;;;21056186;28;20353;-74
2023/09/28 04:29:00;;;;;;;;;;;11.80;99.90;;;;;;21052333;28;19920;-76
2023/09/28 04:39:01;;;;;;;;;;;11.70;99.90;;;;;;21051914;28;19919;-76
2023/09/28 04:49:02;;;;;;;;;;;11.70;99.90;;;;;;21043748;28;19955;-77
2023/09/28 04:59:02;;;;;;;;;;;11.80;99.90;;;;;;21050725;28;20260;-76
2023/09/28 05:09:04;;;;;;;;;;;11.80;99.90;;;;;;21050337;28;19923;-76
2023/09/28 05:19:06;;;;;;;;;;;11.70;99.90;;;;;;21043414;28;20007;-75
2023/09/28 05:29:06;;;;;;;;;;;11.70;99.90;;;;;;20985196;28;1829567;-76
2023/09/28 05:39:08;;;;;;;;;;;11.70;99.90;;;;;;21052132;28;20390;-75
2023/09/28 05:49:09;;;;;;;;;;;11.60;99.90;;;;;;21050538;28;19923;-75
2023/09/28 05:59:10;;;;;;;;;;;11.80;99.90;;;;;;21030849;28;19912;-75
2023/09/28 06:09:10;;;;;;;;;;;11.90;99.90;;;;;;21020341;28;20460;-75
2023/09/28 06:19:14;;;;;;;;;;;11.90;99.90;;;;;;21008193;28;20022;-76
2023/09/28 06:29:15;;;;;;;;;;;12.00;99.90;;;;;;21013298;28;20371;-75
2023/09/28 06:39:16;;;;;;;;;;;12.20;99.90;;;;;;21047373;28;19920;-75
2023/09/28 06:49:16;;;;;;;;;;;12.30;99.90;;;;;;21049825;28;19923;-75
2023/09/28 06:59:17;;;;;;;;;;;12.30;99.90;;;;;;21049832;28;19912;-75
2023/09/28 07:09:18;;;;;;;;;;;12.30;99.90;;;;;;21049304;28;19916;-76
2023/09/28 07:19:19;;;;;;;;;;;12.60;99.90;;;;;;21050363;28;20331;-76
2023/09/28 07:29:20;;;;;;;;;;;14.40;99.90;;;;;;21048525;28;19916;-76
2023/09/28 07:39:21;;;;;;;;;;;15.60;99.90;;;;;;21050687;28;19916;-76
2023/09/28 07:49:21;;;;;;;;;;;16.90;99.90;;;;;;21049448;28;19962;-76
2023/09/28 07:59:23;;;;;;;;;;;17.10;99.90;;;;;;20986007;28;19921;-75
2023/09/28 08:09:24;;;;;;;;;;;17.00;99.90;;;;;;20952932;28;20011;-77
2023/09/28 08:19:25;;;;;;;;;;;17.70;99.90;;;;;;20952198;28;19941;-77
2023/09/28 08:29:26;;;;;;;;;;;18.40;99.90;;;;;;20984101;28;19967;-77
2023/09/28 08:39:27;;;;;;;;;;;19.30;99.90;;;;;;20980246;28;19966;-78
2023/09/28 08:49:29;;;;;;;;;;;20.30;99.90;;;;;;21000500;28;19916;-79
2023/09/28 08:59:30;;;;;;;;;;;19.80;99.90;;;;;;21010213;28;19928;-79
2023/09/28 09:09:39;;;;;;;;;;;21.40;99.90;;;;;;20983627;28;19970;-78
2023/09/28 09:19:41;;;;;;;;;;;22.40;99.90;;;;;;20964669;28;20359;-77
2023/09/28 09:29:41;;;;;;;;;;;23.70;99.90;;;;;;21052441;28;20016;-77
2023/09/28 09:39:42;;;;;;;;;;;24.30;99.90;;;;;;21056597;28;19912;-77
2023/09/28 09:49:43;;;;;;;;;;;24.50;99.90;;;;;;21060233;28;20378;-77
2023/09/28 09:59:48;;;;;;;;;;;25.50;99.90;;;;;;21060795;28;19913;-77
2023/09/28 10:09:48;;;;;;;;;;;25.20;99.90;;;;;;21065334;28;19923;-77
2023/09/28 10:19:50;;;;;;;;;;;24.90;99.90;;;;;;21059208;28;19913;-77
2023/09/28 10:30:11;;;;;;;;;;;23.80;99.90;;;;;;21057213;28;20409;-76
2023/09/28 10:40:12;;;;;;;;;;;24.40;99.90;;;;;;21055623;28;20346;-76
2023/09/28 10:50:15;;;;;;;;;;;25.70;99.90;;;;;;21055912;28;19962;-76
2023/09/28 11:00:18;;;;;;;;;;;26.60;99.90;;;;;;21055960;28;20446;-76
2023/09/28 11:10:22;;;;;;;;;;;26.70;99.90;;;;;;21039460;28;19917;-77
2023/09/28 11:20:23;;;;;;;;;;;26.10;99.90;;;;;;21052810;28;19986;-76
2023/09/28 11:30:23;;;;;;;;;;;26.40;99.90;;;;;;21054767;28;19916;-77
2023/09/28 11:40:24;;;;;;;;;;;25.40;99.90;;;;;;21054718;28;19955;-77
2023/09/28 11:50:27;;;;;;;;;;;26.70;99.90;;;;;;21054892;28;19928;-77
2023/09/28 12:00:28;;;;;;;;;;;26.30;99.90;;;;;;21052629;28;20498;-77
2023/09/28 12:10:29;;;;;;;;;;;27.20;99.90;;;;;;21068782;28;20335;-77
2023/09/28 12:20:29;;;;;;;;;;;26.90;99.90;;;;;;21022217;28;19963;-78
2023/09/28 12:30:30;;;;;;;;;;;27.50;99.90;;;;;;21056361;28;20006;-78
2023/09/28 12:40:33;;;;;;;;;;;28.80;99.90;;;;;;21062952;28;20829;-77
2023/09/28 12:50:34;;;;;;;;;;;29.30;99.90;;;;;;21066474;28;19978;-78
2023/09/28 13:00:37;;;;;;;;;;;29.40;99.90;;;;;;21045362;28;19912;-78
2023/09/28 13:10:39;;;;;;;;;;;28.80;99.90;;;;;;21060229;28;19916;-79
2023/09/28 13:20:39;;;;;;;;;;;29.10;98.80;;;;;;21040466;28;20407;-79
2023/09/28 13:30:40;;;;;;;;;;;29.20;94.40;;;;;;21075408;28;19925;-79
2023/09/28 13:40:43;;;;;;;;;;;29.70;95.30;;;;;;21060644;28;19912;-78
2023/09/28 13:50:44;;;;;;;;;;;30.00;94.90;;;;;;21055303;28;19920;-77
2023/09/28 14:00:45;;;;;;;;;;;29.50;97.40;;;;;;21043217;28;19913;-77
2023/09/28 14:10:46;;;;;;;;;;;29.20;96.40;;;;;;21032557;28;19916;-78
2023/09/28 14:20:47;;;;;;;;;;;29.80;98.50;;;;;;21038362;28;19923;-78
2023/09/28 14:30:48;;;;;;;;;;;29.80;99.50;;;;;;21049398;28;20006;-77
2023/09/28 14:40:48;;;;;;;;;;;30.30;97.20;;;;;;21052521;28;20268;-78
2023/09/28 14:50:49;;;;;;;;;;;29.70;95.60;;;;;;21032467;28;20401;-78
2023/09/28 15:00:52;;;;;;;;;;;29.80;94.40;;;;;;21030965;28;19913;-79
2023/09/28 15:10:53;;;;;;;;;;;30.10;92.60;;;;;;21050481;28;19961;-78
2023/09/28 15:20:54;;;;;;;;;;;30.30;92.80;;;;;;21028916;28;19919;-78
2023/09/28 15:30:58;;;;;;;;;;;30.30;90.90;;;;;;20993131;28;19916;-77
2023/09/28 15:40:59;;;;;;;;;;;29.80;92.90;;;;;;20995158;28;19912;-79
2023/09/28 15:51:00;;;;;;;;;;;29.10;94.20;;;;;;21030745;28;19923;-79
2023/09/28 16:01:01;;;;;;;;;;;27.90;96.50;;;;;;21047796;28;19920;-79
2023/09/28 16:11:01;;;;;;;;;;;26.60;99.00;;;;;;21071731;28;19938;-79
2023/09/28 16:21:02;;;;;;;;;;;25.50;99.90;;;;;;21061896;28;19951;-80
2023/09/28 16:31:03;;;;;;;;;;;24.10;99.90;;;;;;21056777;28;19970;-80
2023/09/28 16:41:03;;;;;;;;;;;23.30;99.90;;;;;;21024744;28;19934;-80
2023/09/28 16:51:04;;;;;;;;;;;23.50;99.90;;;;;;21014654;28;19950;-81
2023/09/28 17:01:05;;;;;;;;;;;22.90;99.90;;;;;;20957313;28;19995;-79
2023/09/28 17:11:06;;;;;;;;;;;22.70;99.90;;;;;;20956826;28;19963;-81
2023/09/28 17:21:06;;;;;;;;;;;22.00;99.90;;;;;;20945719;28;19916;-81
2023/09/28 17:31:07;;;;;;;;;;;20.70;99.90;;;;;;20968721;28;19924;-82
2023/09/28 17:41:08;;;;;;;;;;;19.60;99.90;;;;;;20966886;28;19972;-79
2023/09/28 17:51:08;;;;;;;;;;;18.70;99.90;;;;;;20975774;28;20279;-80
2023/09/28 18:01:10;;;;;;;;;;;18.50;99.90;;;;;;20966268;28;20003;-80
2023/09/28 18:11:10;;;;;;;;;;;18.10;99.90;;;;;;20979434;28;19923;-78
2023/09/28 18:21:11;;;;;;;;;;;17.80;99.90;;;;;;20964455;28;20521;-77
2023/09/28 18:31:12;;;;;;;;;;;17.20;99.90;;;;;;20943631;28;20011;-78
2023/09/28 18:41:16;;;;;;;;;;;17.20;99.90;;;;;;20971074;28;19959;-79
2023/09/28 18:51:18;;;;;;;;;;;16.70;99.90;;;;;;20980207;28;20011;-78
2023/09/28 19:01:18;;;;;;;;;;;16.40;99.90;;;;;;21002910;28;20414;-78
2023/09/28 19:11:19;;;;;;;;;;;16.20;99.90;;;;;;20968520;28;19995;-77
2023/09/28 19:21:19;;;;;;;;;;;16.50;99.90;;;;;;21026190;28;19912;-81
2023/09/28 19:31:20;;;;;;;;;;;15.90;99.90;;;;;;21011933;28;19917;-79
2023/09/28 19:41:24;;;;;;;;;;;15.80;99.90;;;;;;21037754;28;19986;-80
2023/09/28 19:51:25;;;;;;;;;;;15.60;99.90;;;;;;21009950;28;20447;-82
2023/09/28 20:01:26;;;;;;;;;;;15.30;99.90;;;;;;21003984;28;19935;-82
2023/09/28 20:11:26;;;;;;;;;;;15.10;99.90;;;;;;21021937;28;20011;-81
2023/09/28 20:21:27;;;;;;;;;;;14.80;99.90;;;;;;21089360;28;19958;-81
2023/09/28 20:31:28;;;;;;;;;;;14.40;99.90;;;;;;21102444;28;19923;-82
2023/09/28 20:41:29;;;;;;;;;;;14.60;99.90;;;;;;21044745;28;19913;-81
2023/09/28 20:51:32;;;;;;;;;;;14.60;99.90;;;;;;20964642;28;19916;-82
2023/09/28 21:01:33;;;;;;;;;;;14.80;99.90;;;;;;21011551;28;19958;-81
2023/09/28 21:11:33;;;;;;;;;;;14.50;99.90;;;;;;21020936;28;19924;-81
2023/09/28 21:21:34;;;;;;;;;;;14.80;99.90;;;;;;21025594;28;19912;-81
2023/09/28 21:31:35;;;;;;;;;;;14.40;99.90;;;;;;21046397;28;20362;-82
2023/09/28 21:41:35;;;;;;;;;;;14.50;99.90;;;;;;21031764;28;20339;-80
2023/09/28 21:51:36;;;;;;;;;;;14.80;99.90;;;;;;21105944;28;19920;-80
2023/09/28 22:01:37;;;;;;;;;;;14.90;99.90;;;;;;21123754;28;19923;-80
2023/09/28 22:11:38;;;;;;;;;;;14.90;99.90;;;;;;21106076;28;19920;-81
2023/09/28 22:21:38;;;;;;;;;;;14.70;99.90;;;;;;21117132;28;19916;-80
2023/09/28 22:31:40;;;;;;;;;;;14.70;99.90;;;;;;21058993;28;19923;-81
2023/09/28 22:41:41;;;;;;;;;;;14.80;99.90;;;;;;20981630;28;19999;-80
2023/09/28 22:51:41;;;;;;;;;;;14.60;99.90;;;;;;20968839;28;19924;-81
2023/09/28 23:01:42;;;;;;;;;;;14.50;99.90;;;;;;20967213;28;19966;-81
2023/09/28 23:11:45;;;;;;;;;;;14.40;99.90;;;;;;20963860;28;20406;-79
2023/09/28 23:21:45;;;;;;;;;;;14.30;99.90;;;;;;20975943;28;19913;-81
2023/09/28 23:31:54;;;;;;;;;;;14.00;99.90;;;;;;20967591;28;19917;-80
2023/09/28 23:41:55;;;;;;;;;;;13.70;99.90;;;;;;20972224;28;19912;-80
2023/09/28 23:51:55;;;;;;;;;;;13.70;99.90;;;;;;20977126;28;19924;-81
